Time;durP1;ratioP1;P1;durP2;ratioP2;P2;SDS_P1;SDS_P2;PMS_P1;PMS_P2;Temp;Humidity;BMP_temperature;BMP_pressure;BME280_temperature;BME280_humidity;BME280_pressure;Samples;Min_cycle;Max_cycle;Signal;HPM_P1;HPM_P2
2023/01/18 00:00:41;;;;;;;;;;;;;;;25.47;38.44;91269.81;4939167;28;7044;-57
2023/01/18 00:03:14;;;;;;;;;;;;;;;25.45;38.31;91275.91;4955568;28;7346;-57
2023/01/18 00:05:42;;;;;;;;;;;;;;;25.49;37.80;91278.22;4959002;28;7085;-57
2023/01/18 00:08:30;;;;;;;;;;;;;;;25.49;38.39;91278.91;4960495;28;9133;-57
2023/01/18 00:11:30;;;;;;;;;;;;;;;25.47;38.36;91278.78;4954029;28;7035;-57
2023/01/18 00:14:11;;;;;;;;;;;;;;;25.48;38.11;91285.75;4895878;29;8617;-57
2023/01/18 00:16:46;;;;;;;;;;;;;;;25.47;38.29;91278.78;4893438;29;9013;-57
2023/01/18 00:19:13;;;;;;;;;;;;;;;25.47;38.21;91287.03;4885213;29;7152;-57
2023/01/18 00:21:39;;;;;;;;;;;;;;;25.46;38.07;91288.34;4895416;29;7500;-57
2023/01/18 00:24:26;;;;;;;;;;;;;;;25.45;37.54;91289.66;4896941;29;8827;-57
2023/01/18 00:27:03;;;;;;;;;;;;;;;25.47;37.82;91294.59;4886231;29;9158;-57
2023/01/18 00:29:31;;;;;;;;;;;;;;;25.47;37.69;91297.34;4903384;29;9085;-57
2023/01/18 00:32:05;;;;;;;;;;;;;;;25.48;37.79;91294.00;4899783;29;9086;-57
2023/01/18 00:34:35;;;;;;;;;;;;;;;25.48;38.00;91298.78;4881643;29;9130;-57
2023/01/18 00:37:01;;;;;;;;;;;;;;;25.47;37.43;91303.53;4885148;29;8026;-57
2023/01/18 00:39:30;;;;;;;;;;;;;;;25.46;38.33;91299.38;4877188;29;6980;-57
2023/01/18 00:44:43;;;;;;;;;;;;;;;25.46;38.17;91304.88;4890071;29;9096;-57
2023/01/18 00:47:09;;;;;;;;;;;;;;;25.47;37.90;91309.06;4890128;29;9379;-57
2023/01/18 00:49:38;;;;;;;;;;;;;;;25.47;38.39;91311.81;4898762;29;7302;-57
2023/01/18 00:52:04;;;;;;;;;;;;;;;25.46;37.82;91313.13;4952396;28;7725;-57
2023/01/18 00:54:29;;;;;;;;;;;;;;;25.48;37.50;91315.28;4951377;28;7267;-57
2023/01/18 00:56:55;;;;;;;;;;;;;;;25.48;38.61;91318.03;4950750;28;9252;-57
2023/01/18 00:59:22;;;;;;;;;;;;;;;25.45;38.29;91325.41;4956328;28;9035;-57
2023/01/18 01:02:37;;;;;;;;;;;;;;;25.47;38.66;91342.06;4955516;28;8782;-57
2023/01/18 01:08:01;;;;;;;;;;;;;;;25.45;38.53;91347.44;4891722;29;7487;-57
2023/01/18 01:10:40;;;;;;;;;;;;;;;25.46;38.01;91357.16;4894579;29;8658;-57
2023/01/18 01:27:50;;;;;;;;;;;;;;;25.46;38.60;91340.63;4904696;29;9192;-57
2023/01/18 01:30:28;;;;;;;;;;;;;;;25.45;38.39;91328.16;4895286;29;7128;-57
2023/01/18 01:32:55;;;;;;;;;;;;;;;25.46;38.11;91326.88;4889565;29;9591;-57
2023/01/18 01:35:21;;;;;;;;;;;;;;;25.46;38.35;91321.38;4880498;29;7454;-57
2023/01/18 01:37:59;;;;;;;;;;;;;;;25.42;38.15;91313.56;4896977;29;8652;-57
2023/01/18 01:40:27;;;;;;;;;;;;;;;25.46;38.33;91324.13;4880227;29;7615;-57
2023/01/18 01:43:01;;;;;;;;;;;;;;;25.44;37.70;91324.00;4938768;28;8784;-57
2023/01/18 01:45:31;;;;;;;;;;;;;;;25.43;38.17;91314.28;4937606;28;9150;-57
2023/01/18 01:47:58;;;;;;;;;;;;;;;25.47;38.52;91330.38;4949914;28;8961;-57
2023/01/18 01:50:41;;;;;;;;;;;;;;;25.42;37.88;91324.56;4949079;28;8793;-57
2023/01/18 01:53:10;;;;;;;;;;;;;;;25.45;38.30;91336.44;4952645;28;7955;-57
2023/01/18 01:55:38;;;;;;;;;;;;;;;25.46;37.70;91342.66;4952718;28;7639;-57
2023/01/18 01:58:14;;;;;;;;;;;;;;;25.46;37.75;91334.41;4948212;28;8186;-57
2023/01/18 02:00:53;;;;;;;;;;;;;;;25.45;38.54;91349.47;4958251;28;7484;-57
2023/01/18 02:03:41;;;;;;;;;;;;;;;25.46;38.48;91348.91;4936472;28;8665;-57
2023/01/18 02:06:33;;;;;;;;;;;;;;;25.45;37.68;91352.94;4942964;28;7167;-57
2023/01/18 02:09:06;;;;;;;;;;;;;;;25.45;38.16;91355.69;4947158;28;9418;-57
2023/01/18 02:11:32;;;;;;;;;;;;;;;25.43;38.46;91353.53;4936422;28;8827;-57
2023/01/18 02:14:03;;;;;;;;;;;;;;;25.45;38.08;91355.69;4937123;28;7255;-57
2023/01/18 02:16:56;;;;;;;;;;;;;;;25.47;37.63;91361.34;4963640;28;9150;-57
2023/01/18 02:20:23;;;;;;;;;;;;;;;25.47;38.36;91369.59;4925605;28;7940;-57
2023/01/18 02:23:34;;;;;;;;;;;;;;;25.37;38.71;91366.09;4950953;28;7178;-57
2023/01/18 02:26:13;;;;;;;;;;;;;;;25.36;38.29;91370.16;4947326;28;9021;-57
2023/01/18 02:29:04;;;;;;;;;;;;;;;25.34;38.58;91376.25;4953615;28;8668;-57
2023/01/18 02:31:50;;;;;;;;;;;;;;;25.34;38.37;91379.00;4953179;28;8700;-57
2023/01/18 02:34:47;;;;;;;;;;;;;;;25.34;38.38;91381.03;4932305;28;9036;-57
2023/01/18 02:37:51;;;;;;;;;;;;;;;25.32;38.96;91389.84;4909317;29;9064;-57
2023/01/18 02:40:47;;;;;;;;;;;;;;;25.34;38.29;91392.03;4905477;29;9025;-57
2023/01/18 02:46:45;;;;;;;;;;;;;;;25.34;38.24;91400.28;4883324;29;9065;-57
2023/01/18 02:49:22;;;;;;;;;;;;;;;25.33;38.76;91399.56;4892182;29;9038;-57
2023/01/18 02:52:03;;;;;;;;;;;;;;;25.32;38.00;91406.38;4891755;29;8809;-57
2023/01/18 02:54:34;;;;;;;;;;;;;;;25.33;38.48;91402.31;4878096;29;7111;-57
2023/01/18 02:57:11;;;;;;;;;;;;;;;25.34;38.50;91401.00;4873262;29;7360;-57
2023/01/18 02:59:53;;;;;;;;;;;;;;;25.34;38.70;91406.50;4878015;29;7282;-57
2023/01/18 03:02:32;;;;;;;;;;;;;;;25.34;38.63;91405.78;4879125;29;8212;-57
2023/01/18 03:05:12;;;;;;;;;;;;;;;25.31;38.81;91406.97;4890454;29;7917;-57
2023/01/18 03:07:49;;;;;;;;;;;;;;;25.30;38.13;91408.25;4874559;29;8569;-57
2023/01/18 03:11:00;;;;;;;;;;;;;;;25.33;38.81;91415.34;4879510;29;7755;-57
2023/01/18 03:14:16;;;;;;;;;;;;;;;25.32;38.06;91406.38;4845015;29;8617;-57
2023/01/18 03:17:03;;;;;;;;;;;;;;;25.33;38.44;91416.06;4851016;29;7576;-58
2023/01/18 03:20:08;;;;;;;;;;;;;;;25.33;39.07;91407.09;4853004;29;7135;-58
2023/01/18 03:23:49;;;;;;;;;;;;;;;25.32;38.81;91406.38;4832778;29;7238;-58
2023/01/18 03:26:15;;;;;;;;;;;;;;;25.31;38.68;91402.19;4840829;29;8799;-58
2023/01/18 03:35:14;;;;;;;;;;;;;;;25.33;38.77;91416.06;4838938;29;7262;-56
2023/01/18 03:37:59;;;;;;;;;;;;;;;25.33;38.50;91415.34;4826220;29;7363;-56
2023/01/18 03:40:30;;;;;;;;;;;;;;;25.33;38.63;91421.59;4826602;29;7945;-56
2023/01/18 03:43:35;;;;;;;;;;;;;;;25.35;38.15;91412.75;4842576;29;7025;-56
2023/01/18 03:46:04;;;;;;;;;;;;;;;25.33;38.11;91421.59;4828084;29;7242;-56
2023/01/18 03:48:35;;;;;;;;;;;;;;;25.33;38.45;91416.06;4827181;29;7145;-56
2023/01/18 03:51:36;;;;;;;;;;;;;;;25.34;39.10;91428.50;4860348;29;9032;-56
2023/01/18 03:54:06;;;;;;;;;;;;;;;25.32;39.05;91420.13;4799453;29;9457;-56
2023/01/18 03:56:32;;;;;;;;;;;;;;;25.34;38.60;91427.78;4800225;29;9201;-56
2023/01/18 03:59:03;;;;;;;;;;;;;;;25.35;38.99;91434.75;4861124;29;7363;-56
2023/01/18 04:01:37;;;;;;;;;;;;;;;25.35;38.91;91432.00;4863311;29;7256;-56
2023/01/18 04:04:41;;;;;;;;;;;;;;;25.36;38.75;91431.41;4872416;29;7218;-56
2023/01/18 04:07:17;;;;;;;;;;;;;;;25.35;38.62;91429.25;4788634;30;7261;-56
2023/01/18 04:09:48;;;;;;;;;;;;;;;25.37;38.97;91426.63;4770891;30;9099;-56
2023/01/18 04:12:14;;;;;;;;;;;;;;;25.36;38.49;91436.91;4773215;30;7210;-56
2023/01/18 04:14:42;;;;;;;;;;;;;;;25.34;38.25;91430.53;4771932;29;9415;-56
2023/01/18 04:17:11;;;;;;;;;;;;;;;25.34;38.64;91430.53;4766905;29;8220;-56
2023/01/18 04:19:40;;;;;;;;;;;;;;;25.34;38.02;91434.03;4768474;30;8981;-56
2023/01/18 04:22:07;;;;;;;;;;;;;;;25.37;38.51;91434.88;4792580;29;7772;-56
2023/01/18 04:24:41;;;;;;;;;;;;;;;25.37;38.52;91437.63;4786253;29;8079;-56
2023/01/18 04:27:07;;;;;;;;;;;;;;;25.36;38.94;91441.69;4773424;30;7052;-56
2023/01/18 04:29:35;;;;;;;;;;;;;;;25.37;38.81;91434.88;4807541;29;9085;-56
2023/01/18 04:32:06;;;;;;;;;;;;;;;25.36;38.30;91442.41;4845291;29;7126;-56
2023/01/18 04:34:40;;;;;;;;;;;;;;;25.36;38.62;91436.19;4827885;29;9336;-57
2023/01/18 04:37:40;;;;;;;;;;;;;;;25.37;38.42;91451.41;4862543;28;7207;-57
2023/01/18 04:40:11;;;;;;;;;;;;;;;25.37;38.38;91448.66;4893812;29;7211;-57
2023/01/18 04:42:39;;;;;;;;;;;;;;;25.39;38.92;91462.53;4882909;29;9348;-57
2023/01/18 04:45:06;;;;;;;;;;;;;;;25.37;38.83;91456.91;4876928;29;7290;-57
2023/01/18 04:47:42;;;;;;;;;;;;;;;25.40;38.26;91464.00;4886193;29;7314;-57
2023/01/18 04:50:11;;;;;;;;;;;;;;;25.37;39.10;91457.63;4887662;29;9029;-57
2023/01/18 04:52:37;;;;;;;;;;;;;;;25.37;38.17;91471.38;4881162;29;7438;-57
2023/01/18 04:55:03;;;;;;;;;;;;;;;25.35;39.07;91476.00;4897371;29;9077;-57
2023/01/18 04:57:29;;;;;;;;;;;;;;;25.32;38.79;91477.16;4866934;29;7250;-57
2023/01/18 04:59:55;;;;;;;;;;;;;;;25.36;38.78;91482.94;4877597;29;9037;-57
2023/01/18 05:02:27;;;;;;;;;;;;;;;25.37;38.42;91489.91;4886006;29;7354;-57
2023/01/18 05:04:54;;;;;;;;;;;;;;;25.36;38.46;91483.69;4880993;29;7141;-57
2023/01/18 05:07:24;;;;;;;;;;;;;;;25.34;38.64;91488.31;4889544;29;8765;-57
2023/01/18 05:09:59;;;;;;;;;;;;;;;25.34;38.45;91493.81;4893998;29;7192;-57
2023/01/18 05:12:26;;;;;;;;;;;;;;;25.34;38.66;91497.28;4888242;29;9218;-57
2023/01/18 05:14:53;;;;;;;;;;;;;;;25.35;38.64;91506.28;4886192;28;6872;-57
2023/01/18 05:17:20;;;;;;;;;;;;;;;25.34;38.60;91511.06;4951882;28;8666;-57
2023/01/18 05:19:47;;;;;;;;;;;;;;;25.34;39.02;91526.81;4948960;28;7230;-57
2023/01/18 05:22:13;;;;;;;;;;;;;;;25.34;38.32;91526.81;4951798;28;7372;-57
2023/01/18 05:24:39;;;;;;;;;;;;;;;25.34;39.12;91529.56;4951539;28;9354;-57
2023/01/18 05:27:19;;;;;;;;;;;;;;;25.33;38.79;91526.13;4953382;28;7677;-57
2023/01/18 05:29:51;;;;;;;;;;;;;;;25.34;38.33;91532.34;4933873;28;7067;-57
2023/01/18 05:32:17;;;;;;;;;;;;;;;25.33;38.52;91531.63;4951235;28;8700;-57
2023/01/18 05:34:44;;;;;;;;;;;;;;;25.33;38.86;91542.63;4951107;28;9000;-57
2023/01/18 05:37:13;;;;;;;;;;;;;;;25.33;38.81;91539.16;4953758;28;9240;-57
2023/01/18 05:39:39;;;;;;;;;;;;;;;25.35;38.22;91544.81;4951664;28;7048;-57
2023/01/18 05:42:05;;;;;;;;;;;;;;;25.35;38.85;91547.56;4939574;28;9173;-57
2023/01/18 05:44:38;;;;;;;;;;;;;;;25.34;38.44;91548.84;4933536;28;8852;-56
2023/01/18 05:47:04;;;;;;;;;;;;;;;25.34;38.86;91551.59;4934342;28;7244;-57
2023/01/18 05:49:30;;;;;;;;;;;;;;;25.32;38.95;91559.69;4944148;28;7207;-57
2023/01/18 05:52:01;;;;;;;;;;;;;;;25.33;38.88;91561.88;4956376;28;8289;-57
2023/01/18 05:54:27;;;;;;;;;;;;;;;25.33;38.79;91567.41;4946952;28;8997;-56
2023/01/18 05:56:52;;;;;;;;;;;;;;;25.33;39.28;91569.41;4955085;28;8717;-56
2023/01/18 05:59:52;;;;;;;;;;;;;;;25.39;39.05;91580.84;4951422;28;9419;-56
2023/01/18 06:02:29;;;;;;;;;;;;;;;25.40;39.24;91591.28;4875257;29;9015;-57
2023/01/18 06:05:26;;;;;;;;;;;;;;;25.45;39.32;91592.34;4899083;29;7314;-58
2023/01/18 06:08:07;;;;;;;;;;;;;;;25.48;38.74;91593.22;4894309;29;8641;-57
2023/01/18 06:10:35;;;;;;;;;;;;;;;25.49;38.63;91592.63;4895262;29;8970;-57
2023/01/18 06:13:00;;;;;;;;;;;;;;;25.46;38.83;91599.31;4877111;29;9133;-57
2023/01/18 06:15:26;;;;;;;;;;;;;;;25.49;39.03;91614.66;4892734;29;7040;-57
2023/01/18 06:17:52;;;;;;;;;;;;;;;25.49;39.48;91614.66;4895343;29;9379;-58
2023/01/18 06:20:18;;;;;;;;;;;;;;;25.49;38.59;91614.66;4878698;29;7119;-57
2023/01/18 06:23:16;;;;;;;;;;;;;;;25.53;38.42;91623.22;4888325;29;7033;-57
2023/01/18 06:25:45;;;;;;;;;;;;;;;25.51;38.57;91623.06;4855632;29;9060;-57
2023/01/18 06:28:11;;;;;;;;;;;;;;;25.52;38.91;91624.50;4854178;29;7262;-57
2023/01/18 06:30:37;;;;;;;;;;;;;;;25.50;38.53;91634.63;4846605;29;9453;-57
2023/01/18 06:33:06;;;;;;;;;;;;;;;25.48;39.39;91632.47;4841885;29;7390;-57
2023/01/18 06:35:36;;;;;;;;;;;;;;;25.49;38.96;91633.19;4849941;29;9140;-57
2023/01/18 06:38:03;;;;;;;;;;;;;;;25.51;38.10;91627.84;4858365;29;7815;-57
2023/01/18 06:40:29;;;;;;;;;;;;;;;25.50;37.56;91637.38;4868115;29;7238;-57
2023/01/18 06:42:58;;;;;;;;;;;;;;;25.51;38.53;91639.59;4871034;29;7050;-57
2023/01/18 06:45:24;;;;;;;;;;;;;;;25.55;38.34;91645.38;4867507;29;7096;-57
2023/01/18 06:47:51;;;;;;;;;;;;;;;25.54;37.79;91651.44;4863663;29;9402;-57
2023/01/18 06:50:17;;;;;;;;;;;;;;;25.58;38.34;91652.47;4866875;29;9373;-57
2023/01/18 06:52:47;;;;;;;;;;;;;;;25.61;37.82;91659.59;4873878;29;7129;-57
2023/01/18 06:55:14;;;;;;;;;;;;;;;25.62;37.95;91674.09;4874950;29;7264;-57
2023/01/18 06:57:42;;;;;;;;;;;;;;;25.62;37.70;91672.03;4892731;29;9461;-57
2023/01/18 07:00:21;;;;;;;;;;;;;;;25.68;38.33;91680.03;4874329;29;7301;-57
2023/01/18 07:03:14;;;;;;;;;;;;;;;25.69;38.09;91676.69;4928840;28;7435;-57
2023/01/18 07:06:02;;;;;;;;;;;;;;;25.68;38.51;91678.00;4937994;28;7224;-57
2023/01/18 07:08:48;;;;;;;;;;;;;;;25.68;38.71;91675.25;4932028;28;7188;-57
2023/01/18 07:11:17;;;;;;;;;;;;;;;25.70;38.54;91689.16;4950581;28;9199;-57
2023/01/18 07:13:45;;;;;;;;;;;;;;;25.67;38.12;91684.81;4952242;28;7128;-57
2023/01/18 07:16:16;;;;;;;;;;;;;;;25.66;37.62;91682.63;4935150;28;9349;-57
2023/01/18 07:19:06;;;;;;;;;;;;;;;25.64;38.39;91685.25;4951179;28;8980;-57
2023/01/18 07:21:41;;;;;;;;;;;;;;;25.64;37.77;91701.75;4949976;29;7510;-57
2023/01/18 07:24:10;;;;;;;;;;;;;;;25.62;38.26;91702.31;4952308;28;7306;-57
2023/01/18 07:27:02;;;;;;;;;;;;;;;25.58;39.04;91699.25;4955878;28;7623;-57
2023/01/18 07:29:55;;;;;;;;;;;;;;;25.57;38.90;91708.84;4951763;28;7004;-57
2023/01/18 07:32:35;;;;;;;;;;;;;;;25.52;39.36;91706.34;4898463;29;7225;-57
2023/01/18 07:35:04;;;;;;;;;;;;;;;25.57;38.58;91719.84;4898158;29;9333;-57
2023/01/18 07:37:33;;;;;;;;;;;;;;;25.60;39.31;91724.19;4896698;29;7021;-56
2023/01/18 07:40:14;;;;;;;;;;;;;;;25.59;39.18;91728.25;4896935;29;7288;-57
2023/01/18 07:42:41;;;;;;;;;;;;;;;25.60;39.26;91726.94;4892709;29;7520;-57
2023/01/18 07:45:16;;;;;;;;;;;;;;;25.59;39.12;91733.75;4911561;29;9468;-57
2023/01/18 07:47:44;;;;;;;;;;;;;;;25.62;39.95;91740.84;4912944;29;9461;-57
2023/01/18 07:50:14;;;;;;;;;;;;;;;25.63;39.57;91744.34;4897110;29;7236;-57
2023/01/18 07:52:40;;;;;;;;;;;;;;;25.64;39.80;91740.28;4895878;29;8985;-57
2023/01/18 07:55:07;;;;;;;;;;;;;;;25.61;39.95;91752.44;4912713;29;9020;-57
2023/01/18 07:57:33;;;;;;;;;;;;;;;25.59;39.51;91758.53;4910432;29;9224;-57
2023/01/18 07:59:59;;;;;;;;;;;;;;;25.63;39.66;91760.84;4906611;29;9077;-57
2023/01/18 08:02:28;;;;;;;;;;;;;;;25.64;40.04;91762.31;4889619;29;7906;-57
2023/01/18 08:04:54;;;;;;;;;;;;;;;25.63;39.07;91775.34;4889404;29;7171;-57
2023/01/18 08:07:22;;;;;;;;;;;;;;;25.62;39.40;91770.41;4909973;29;9067;-57
2023/01/18 08:09:51;;;;;;;;;;;;;;;25.62;39.33;91782.13;4921678;29;9017;-57
2023/01/18 08:12:21;;;;;;;;;;;;;;;25.65;40.27;91788.53;4949281;28;9617;-57
2023/01/18 08:14:48;;;;;;;;;;;;;;;25.65;39.65;91786.50;4937812;28;9638;-57
2023/01/18 08:17:14;;;;;;;;;;;;;;;25.65;39.38;91800.28;4931432;28;9544;-57
2023/01/18 08:19:42;;;;;;;;;;;;;;;25.65;39.12;91794.75;4946960;28;9071;-57
2023/01/18 08:22:08;;;;;;;;;;;;;;;25.66;39.62;91803.75;4949498;28;9540;-57
2023/01/18 08:24:34;;;;;;;;;;;;;;;25.65;39.06;91808.53;4936983;28;7484;-57
2023/01/18 08:27:02;;;;;;;;;;;;;;;25.64;39.84;91809.84;4938069;28;7889;-57
2023/01/18 08:29:28;;;;;;;;;;;;;;;25.62;40.23;91815.16;4948953;28;7245;-57
2023/01/18 08:31:55;;;;;;;;;;;;;;;25.63;39.73;91816.63;4949425;28;7011;-57
2023/01/18 08:34:20;;;;;;;;;;;;;;;25.65;39.69;91814.03;4931937;28;6982;-57
2023/01/18 08:36:46;;;;;;;;;;;;;;;25.64;39.34;91823.59;4944944;28;7180;-57
2023/01/18 08:39:15;;;;;;;;;;;;;;;25.63;39.78;91824.91;4948832;28;9007;-58
2023/01/18 08:41:41;;;;;;;;;;;;;;;25.63;39.23;91819.38;4931957;28;7267;-57
2023/01/18 08:44:07;;;;;;;;;;;;;;;25.63;39.26;91808.38;4949950;28;7019;-58
2023/01/18 08:46:34;;;;;;;;;;;;;;;25.62;39.93;91820.69;4936216;28;9091;-57
2023/01/18 08:49:00;;;;;;;;;;;;;;;25.65;39.12;91825.03;4960602;28;6997;-58
2023/01/18 08:51:26;;;;;;;;;;;;;;;25.66;40.06;91832.03;4936334;28;7067;-57
2023/01/18 08:53:55;;;;;;;;;;;;;;;25.67;39.37;91827.94;4949905;28;8717;-57
2023/01/18 08:56:23;;;;;;;;;;;;;;;25.67;39.62;91833.47;4948474;28;7441;-57
2023/01/18 08:58:50;;;;;;;;;;;;;;;25.69;39.54;91841.88;4946306;28;7011;-57
2023/01/18 09:01:17;;;;;;;;;;;;;;;25.69;40.11;91844.63;4950100;28;7210;-57
2023/01/18 09:03:43;;;;;;;;;;;;;;;25.66;39.50;91848.53;4950407;28;7017;-57
2023/01/18 09:06:15;;;;;;;;;;;;;;;25.63;40.00;91852.41;4945982;28;7334;-57
2023/01/18 09:08:41;;;;;;;;;;;;;;;25.64;39.23;91856.63;4935076;28;8840;-57
2023/01/18 09:11:09;;;;;;;;;;;;;;;25.65;39.53;91863.59;4952133;28;7140;-57
2023/01/18 09:13:40;;;;;;;;;;;;;;;25.64;39.81;91870.41;4943494;28;7033;-57
2023/01/18 09:16:09;;;;;;;;;;;;;;;25.67;39.76;91874.75;4932151;28;7613;-57
2023/01/18 09:18:41;;;;;;;;;;;;;;;25.66;40.23;91870.56;4953067;28;8984;-57
2023/01/18 09:21:10;;;;;;;;;;;;;;;25.69;39.76;91879.69;4944468;28;9059;-58
2023/01/18 09:23:38;;;;;;;;;;;;;;;25.69;40.37;91883.16;4935913;28;7243;-58
2023/01/18 09:26:17;;;;;;;;;;;;;;;25.70;40.37;91892.88;4947899;28;9257;-57
2023/01/18 09:28:46;;;;;;;;;;;;;;;25.70;39.82;91898.41;4944693;28;8927;-57
2023/01/18 09:31:31;;;;;;;;;;;;;;;25.71;40.24;91907.38;4935655;28;9167;-57
2023/01/18 09:34:00;;;;;;;;;;;;;;;25.61;36.17;91921.09;4931691;28;9734;-58
2023/01/18 09:36:27;;;;;;;;;;;;;;;25.26;29.09;91922.38;4953394;28;7513;-57
2023/01/18 09:38:57;;;;;;;;;;;;;;;24.95;27.97;91921.97;4952798;28;9433;-58
2023/01/18 09:41:46;;;;;;;;;;;;;;;24.73;30.66;91939.38;4948071;28;9168;-58
2023/01/18 09:44:31;;;;;;;;;;;;;;;24.68;30.18;91940.38;4944948;28;8427;-58
2023/01/18 09:47:11;;;;;;;;;;;;;;;24.73;28.37;91942.13;4950500;28;9378;-58
2023/01/18 09:49:53;;;;;;;;;;;;;;;24.76;28.21;91945.81;4944157;28;9107;-58
2023/01/18 09:52:32;;;;;;;;;;;;;;;24.84;28.58;91949.25;4935639;28;9001;-57
2023/01/18 09:55:04;;;;;;;;;;;;;;;24.86;28.67;91947.34;4947008;28;9401;-57
2023/01/18 09:57:39;;;;;;;;;;;;;;;24.90;28.68;91957.97;4947269;28;7123;-58
2023/01/18 10:00:20;;;;;;;;;;;;;;;24.91;28.96;91959.41;4943116;28;9243;-58
2023/01/18 10:03:01;;;;;;;;;;;;;;;24.92;29.69;91958.88;4923569;28;7053;-58
2023/01/18 10:05:36;;;;;;;;;;;;;;;24.96;29.52;91963.97;4931065;28;7352;-57
2023/01/18 10:08:17;;;;;;;;;;;;;;;25.03;30.11;91968.66;4953685;28;9760;-57
2023/01/18 10:11:07;;;;;;;;;;;;;;;25.11;31.18;91966.56;4942542;28;8740;-57
2023/01/18 10:13:43;;;;;;;;;;;;;;;25.15;29.96;91977.88;4953869;28;7234;-57
2023/01/18 10:16:14;;;;;;;;;;;;;;;25.18;30.87;91985.75;4942086;28;7077;-57
2023/01/18 10:18:46;;;;;;;;;;;;;;;25.22;31.22;91979.84;4947124;28;7292;-57
2023/01/18 10:21:54;;;;;;;;;;;;;;;25.25;31.28;91982.19;4947155;28;8739;-57
2023/01/18 10:24:37;;;;;;;;;;;;;;;25.28;31.43;91985.81;4877191;29;7216;-57
2023/01/18 10:27:14;;;;;;;;;;;;;;;25.30;31.49;91992.22;4869923;29;9006;-58
2023/01/18 10:30:11;;;;;;;;;;;;;;;25.35;31.04;91996.03;4877818;29;9224;-58
2023/01/18 10:32:46;;;;;;;;;;;;;;;25.36;31.60;92008.47;4838472;29;7582;-57
2023/01/18 10:35:46;;;;;;;;;;;;;;;25.36;32.07;92013.97;4840168;29;7267;-57
2023/01/18 10:38:18;;;;;;;;;;;;;;;25.36;32.62;92019.47;4826096;29;8742;-57
2023/01/18 10:40:55;;;;;;;;;;;;;;;25.38;32.14;92022.44;4838192;29;8751;-57
2023/01/18 10:43:24;;;;;;;;;;;;;;;25.39;32.47;92019.09;4824803;29;7241;-57
2023/01/18 10:45:59;;;;;;;;;;;;;;;25.41;32.61;92026.78;4843068;29;9014;-57
2023/01/18 10:48:32;;;;;;;;;;;;;;;25.38;33.04;92034.13;4832379;29;9114;-57
2023/01/18 10:51:01;;;;;;;;;;;;;;;25.36;33.51;92039.47;4840386;29;8177;-57
2023/01/18 10:53:32;;;;;;;;;;;;;;;25.35;33.88;92040.06;4838428;29;8094;-56
2023/01/18 10:56:02;;;;;;;;;;;;;;;25.37;33.42;92037.47;4851969;29;9651;-56
2023/01/18 10:58:53;;;;;;;;;;;;;;;25.36;34.50;92036.72;4841964;29;8802;-57
2023/01/18 11:01:56;;;;;;;;;;;;;;;25.35;35.27;92045.56;4857738;29;9369;-56
2023/01/18 11:04:31;;;;;;;;;;;;;;;25.33;34.87;92050.91;4894790;29;9336;-56
2023/01/18 11:07:22;;;;;;;;;;;;;;;25.36;35.31;92052.50;4887761;29;9412;-56
2023/01/18 11:10:00;;;;;;;;;;;;;;;25.36;34.07;92055.25;4909837;28;7513;-57
2023/01/18 11:12:57;;;;;;;;;;;;;;;25.34;34.71;92049.59;4955265;28;7169;-57
2023/01/18 11:15:27;;;;;;;;;;;;;;;25.34;34.56;92058.59;4937747;28;7177;-57
2023/01/18 11:18:08;;;;;;;;;;;;;;;25.37;34.77;92059.47;4951156;28;7121;-57
2023/01/18 11:20:46;;;;;;;;;;;;;;;25.38;34.87;92069.22;4932151;29;8795;-57
2023/01/18 11:23:35;;;;;;;;;;;;;;;25.39;35.15;92062.41;4955088;29;9474;-57
2023/01/18 11:26:52;;;;;;;;;;;;;;;25.39;35.18;92067.91;4951298;28;7029;-57
2023/01/18 11:29:44;;;;;;;;;;;;;;;25.42;34.86;92066.81;4891938;29;7037;-57
2023/01/18 11:32:27;;;;;;;;;;;;;;;25.44;36.01;92072.47;4892062;29;7222;-57
2023/01/18 11:35:08;;;;;;;;;;;;;;;25.45;35.16;92071.16;4892267;29;7194;-57
2023/01/18 11:38:05;;;;;;;;;;;;;;;25.46;35.15;92072.63;4901956;29;9058;-57
2023/01/18 11:40:37;;;;;;;;;;;;;;;25.49;35.12;92077.00;4890499;29;7417;-57
2023/01/18 11:43:21;;;;;;;;;;;;;;;25.50;35.68;92083.22;4914120;29;7584;-56
2023/01/18 11:46:33;;;;;;;;;;;;;;;25.54;35.06;92089.78;4914158;29;9362;-57
2023/01/18 11:49:42;;;;;;;;;;;;;;;25.55;35.48;92085.03;4915356;29;7320;-57
2023/01/18 11:52:23;;;;;;;;;;;;;;;25.55;34.73;92085.75;4898892;29;7173;-57
2023/01/18 11:54:56;;;;;;;;;;;;;;;25.53;35.08;92088.34;4913090;29;8682;-57
2023/01/18 11:57:22;;;;;;;;;;;;;;;25.59;35.00;92094.34;4901917;29;8720;-57
2023/01/18 11:59:56;;;;;;;;;;;;;;;25.61;34.75;92099.28;4918419;28;7043;-57
2023/01/18 12:03:08;;;;;;;;;;;;;;;25.59;34.88;92102.59;4957077;28;9466;-57
2023/01/18 12:06:05;;;;;;;;;;;;;;;25.61;35.29;92102.03;4863894;29;7888;-57
2023/01/18 12:09:08;;;;;;;;;;;;;;;25.65;35.98;92110.59;4865213;29;9242;-57
2023/01/18 12:12:09;;;;;;;;;;;;;;;25.63;35.16;92100.16;4857118;29;9067;-57
2023/01/18 12:18:23;;;;;;;;;;;;;;;25.72;36.33;92118.81;4820808;29;7274;-57
2023/01/18 12:21:12;;;;;;;;;;;;;;;25.73;36.37;92116.78;4801527;29;9181;-58
2023/01/18 12:24:09;;;;;;;;;;;;;;;25.76;36.04;92126.66;4807944;29;7113;-57
2023/01/18 12:26:59;;;;;;;;;;;;;;;25.78;35.59;92130.31;4793079;29;7479;-57
2023/01/18 12:29:38;;;;;;;;;;;;;;;25.77;35.90;92139.88;4814212;29;9146;-57
2023/01/18 12:32:22;;;;;;;;;;;;;;;25.78;36.11;92140.59;4811450;29;9089;-57
2023/01/18 12:35:13;;;;;;;;;;;;;;;25.82;36.14;92144.41;4798387;29;9148;-58
2023/01/18 12:37:56;;;;;;;;;;;;;;;25.82;36.20;92144.41;4777053;29;8252;-57
2023/01/18 12:41:23;;;;;;;;;;;;;;;25.83;35.94;92145.88;4838971;29;7269;-57
2023/01/18 12:44:10;;;;;;;;;;;;;;;25.86;36.96;92157.78;4803457;29;7048;-58
2023/01/18 12:46:58;;;;;;;;;;;;;;;25.86;36.49;92155.72;4819241;29;7047;-57
2023/01/18 12:49:29;;;;;;;;;;;;;;;25.88;37.13;92160.69;4818241;29;8490;-57
2023/01/18 12:52:03;;;;;;;;;;;;;;;25.86;36.91;92152.97;4822240;29;7028;-57
2023/01/18 12:54:44;;;;;;;;;;;;;;;25.90;36.37;92163.63;4860891;29;8757;-58
2023/01/18 12:57:13;;;;;;;;;;;;;;;25.89;35.99;92164.91;4859765;29;9071;-57
2023/01/18 13:00:14;;;;;;;;;;;;;;;25.91;36.29;92165.06;4860532;29;6987;-57
2023/01/18 13:02:56;;;;;;;;;;;;;;;25.90;36.45;92164.31;4845507;29;7274;-57
2023/01/18 13:05:44;;;;;;;;;;;;;;;25.89;36.15;92162.88;4867654;29;7176;-58
2023/01/18 13:08:19;;;;;;;;;;;;;;;25.88;36.32;92175.19;4851214;29;9053;-57
2023/01/18 13:10:49;;;;;;;;;;;;;;;25.88;36.73;92182.72;4876199;29;8795;-58
2023/01/18 13:13:26;;;;;;;;;;;;;;;25.90;36.26;92185.66;4852771;29;9320;-57
2023/01/18 13:16:36;;;;;;;;;;;;;;;25.88;36.68;92191.00;4896962;29;7365;-58
2023/01/18 13:19:16;;;;;;;;;;;;;;;25.87;37.54;92190.25;4928713;28;7064;-57
2023/01/18 13:22:03;;;;;;;;;;;;;;;25.85;37.28;92192.84;4948745;28;7196;-58
2023/01/18 13:24:33;;;;;;;;;;;;;;;25.83;36.69;92189.94;4950470;28;9026;-57
2023/01/18 13:27:11;;;;;;;;;;;;;;;25.85;37.41;92192.84;4927156;28;7257;-57
2023/01/18 13:29:41;;;;;;;;;;;;;;;25.85;36.72;92201.09;4942241;28;9104;-58
2023/01/18 13:32:47;;;;;;;;;;;;;;;25.82;37.48;92207.72;4930430;28;9037;-57
2023/01/18 13:35:47;;;;;;;;;;;;;;;25.78;37.30;92212.91;4875734;29;9135;-58
2023/01/18 13:38:29;;;;;;;;;;;;;;;25.76;37.47;92214.75;4878498;29;7260;-58
2023/01/18 13:41:02;;;;;;;;;;;;;;;25.71;37.18;92219.22;4879436;29;7650;-57
2023/01/18 13:43:35;;;;;;;;;;;;;;;25.69;36.97;92232.06;4875378;29;8249;-57
2023/01/18 13:46:08;;;;;;;;;;;;;;;25.68;37.72;92236.13;4880486;29;7305;-57
2023/01/18 13:48:43;;;;;;;;;;;;;;;25.67;37.79;92237.41;4869891;29;7714;-58
2023/01/18 13:51:35;;;;;;;;;;;;;;;25.68;37.04;92247.16;4888066;29;9814;-57
2023/01/18 13:54:05;;;;;;;;;;;;;;;25.69;36.52;92245.84;4879051;29;7238;-57
2023/01/18 13:56:36;;;;;;;;;;;;;;;25.69;36.72;92257.59;4896291;29;7328;-57
2023/01/18 13:59:33;;;;;;;;;;;;;;;25.68;35.06;92252.66;4876987;29;9008;-57
2023/01/18 14:02:49;;;;;;;;;;;;;;;25.69;35.29;92259.59;4872611;29;7272;-57
2023/01/18 14:05:41;;;;;;;;;;;;;;;25.69;34.92;92273.38;4883135;29;7274;-57
2023/01/18 14:08:21;;;;;;;;;;;;;;;25.71;35.54;92273.56;4890085;29;8675;-57
2023/01/18 14:10:52;;;;;;;;;;;;;;;25.71;35.16;92281.81;4927379;28;9034;-57
2023/01/18 14:13:44;;;;;;;;;;;;;;;25.70;35.42;92283.09;4930458;28;9403;-57
2023/01/18 14:16:24;;;;;;;;;;;;;;;25.68;35.03;92294.69;4930579;28;9053;-57
2023/01/18 14:19:32;;;;;;;;;;;;;;;25.69;34.68;92301.63;4932828;28;9028;-57
2023/01/18 14:22:34;;;;;;;;;;;;;;;25.69;35.89;92306.41;4919990;29;9436;-57
2023/01/18 14:25:05;;;;;;;;;;;;;;;25.69;35.02;92306.41;4952099;28;7197;-57